NEODyS-2

Near Earth Objects - Dynamic Site
NEODyS ∴ Observatories ∴ Site G45 ∴ Obs & residuals
Contact »
G45  ▹ 
OBSERVATIONS AND RESIDUALS

G45-Space Surveillance Telescope, Atom Site

Detections | Residuals | Detections & Residuals

[1-200] [201-400] [401-600] [601-800] [801-1000] [1001-1200] [1201-1400] [1401-1600] [1601-1800] [1801-2000] [2001-2200] [2201-2400] [2401-2600] [2601-2800] [2801-3000] [3001-3200] [3201-3400] [3401-3600] [3601-3800] [3801-4000] [4001-4200] [4201-4400] [4401-4600] [4601-4800] [4801-5000] [5001-5200] [5201-5400] [5401-5600] [5601-5800] [5801-6000] [6001-6200] [6201-6400] [6401-6600] [6601-6800] [6801-7000] [7001-7200] [7201-7400] [7401-7600] [7601-7800] [7801-8000] [8001-8200] [8201-8400] [8401-8600] [8601-8800] [8801-9000] [9001-9200] [9201-9400] [9401-9600] [9601-9800] [9801-10000] [10001-10200] [10201-10400] [10401-10600] [10601-10800] [10801-11000] [11001-11200] [11201-11400] [11401-11600] [11601-11800] [11801-12000] [12001-12200] [12201-12400] [12401-12600] [12601-12800] [12801-13000] [13001-13200] [13201-13400] [13401-13600] [13601-13800] [13801-14000] [14001-14200] [14201-14400] [14401-14600] [14601-14800] [14801-15000] [15001-15200] [15201-15400] [15401-15600] [15601-15800] [15801-16000] [16001-16200] [16201-16400] [16401-16600] [16601-16800] [16801-17000] [17001-17200] [17201-17400] [17401-17600] [17601-17800] [17801-18000] [18001-18200] [18201-18400] [18401-18600] [18601-18800] [18801-19000] [19001-19200] [19201-19400] [19401-19600] [19601-19800] [19801-20000] [20001-20200] [20201-20400] [20401-20600] [20601-20800] [20801-21000] [21001-21200] [21201-21400] [21401-21600] [21601-21800] [21801-22000] [22001-22200] [22201-22400] [22401-22600] [22601-22800] [22801-23000] [23001-23200] [23201-23400] [23401-23600] [23601-23800] [23801-24000] [24001-24200] [24201-24400] [24401-24600] [24601-24800] [24801-25000] [25001-25200] [25201-25400] [25401-25600] [25601-25800] [25801-26000] [26001-26200] [26201-26400] [26401-26600] [26601-26800] [26801-27000] [27001-27200] [27201-27400] [27401-27600] [27601-27800] [27801-28000] [28001-28200] [28201-28400] [28401-28600] [28601-28800] [28801-29000] [29001-29200] [29201-29400] [29401-29600] [29601-29800] [29801-30000] [30001-30200] [30201-30400] [30401-30600] [30601-30800] [30801-31000] [31001-31200] [31201-31400] [31401-31600] [31601-31764]

Designation T Tech N Date Right Ascension Declination Apparent Magnitude Star Catalog Site code χ Used A Used M
yr-mo-day precision hr:min:sec precision rms F bias residual deg min sec precision rms F bias residual mag/col rms residual
1998XM4 O C 2014-01-04.07165 1.000E-05 01:19:49.560 1.500E-01 1.225 F 0.000 -0.017 +08° 53' 00.10" 1.000E-01 1.225 F 0.000 0.522 18.5 r 0.70 0.11 R G45 0.43 Yes Yes
1994AH2 O C 2014-01-04.07984 1.000E-05 02:35:08.880 1.500E-01 1.118 F 0.000 -0.355 +01° 59' 12.70" 1.000E-01 1.118 F 0.000 0.228 19.7 r 0.70 0.22 R G45 0.38 Yes Yes
1998XM4 O C 2014-01-04.08411 1.000E-05 01:19:49.900 1.500E-01 1.225 F 0.000 -0.234 +08° 52' 40.10" 1.000E-01 1.225 F 0.000 -0.013 18.4 r 0.70 0.01 R G45 0.19 Yes Yes
1994AH2 O C 2014-01-04.09200 1.000E-05 02:35:08.580 1.500E-01 1.118 F 0.000 0.106 +01° 59' 14.20" 1.000E-01 1.118 F 0.000 -0.002 19.7 r 0.70 0.22 R G45 0.09 Yes Yes
1998XM4 O C 2014-01-04.09679 1.000E-05 01:19:50.250 1.500E-01 1.225 F 0.000 -0.404 +08° 52' 20.60" 1.000E-01 1.225 F 0.000 0.295 18.4 r 0.70 0.01 R G45 0.41 Yes Yes
1994AH2 O C 2014-01-04.10467 1.000E-05 02:35:08.240 1.500E-01 1.118 F 0.000 0.174 +01° 59' 16.40" 1.000E-01 1.118 F 0.000 0.394 19.8 r 0.70 0.32 R G45 0.39 Yes Yes
1998XM4 O C 2014-01-04.10935 1.000E-05 01:19:50.650 1.500E-01 1.225 F 0.000 0.205 +08° 52' 00.70" 1.000E-01 1.225 F 0.000 0.015 18.5 r 0.70 0.11 R G45 0.17 Yes Yes
1994AH2 O C 2014-01-04.11710 1.000E-05 02:35:07.900 1.500E-01 1.118 F 0.000 0.141 +01° 59' 17.70" 1.000E-01 1.118 F 0.000 -0.076 19.8 r 0.70 0.32 R G45 0.14 Yes Yes
1998XM4 O C 2014-01-04.12219 1.000E-05 01:19:50.990 1.500E-01 1.225 F 0.000 -0.208 +08° 51' 40.70" 1.000E-01 1.225 F 0.000 0.072 18.3 r 0.70 -0.09 R G45 0.18 Yes Yes
1994AH2 O C 2014-01-04.13014 1.000E-05 02:35:07.550 1.500E-01 1.118 F 0.000 0.202 +01° 59' 19.10" 1.000E-01 1.118 F 0.000 -0.534 19.9 r 0.70 0.42 R G45 0.51 Yes Yes
1998XM4 O C 2014-01-04.13516 1.000E-05 01:19:51.360 1.500E-01 1.225 F 0.000 -0.250 +08° 51' 20.70" 1.000E-01 1.225 F 0.000 0.330 18.5 r 0.70 0.11 R G45 0.34 Yes Yes
1997WU22 O C 2014-01-04.14819 1.000E-05 03:20:40.110 1.500E-01 1.225 F 0.000 -0.383 +21° 06' 03.50" 1.000E-01 1.225 F 0.000 -0.488 18.7 r 0.70 0.23 R G45 0.51 Yes Yes
ESA O C 2014-01-04.15533 1.000E-05 04:16:33.380 1.500E-01 1.118 F 0.000 -0.360 +15° 04' 34.90" 1.000E-01 1.118 F 0.000 0.492 R G45 0.55 Yes No
1997WU22 O C 2014-01-04.16079 1.000E-05 03:20:39.720 1.500E-01 1.225 F 0.000 0.724 +21° 05' 56.10" 1.000E-01 1.225 F 0.000 0.115 18.7 r 0.70 0.23 R G45 0.60 Yes Yes
1997WU22 O C 2014-01-04.17356 1.000E-05 03:20:39.190 1.500E-01 1.225 F 0.000 -0.050 +21° 05' 47.60" 1.000E-01 1.225 F 0.000 -0.264 18.8 r 0.70 0.33 R G45 0.22 Yes Yes
ESA O C 2014-01-04.18040 1.000E-05 04:16:33.690 1.500E-01 1.118 F 0.000 -0.254 +15° 04' 22.30" 1.000E-01 1.118 F 0.000 0.354 18.4 r 0.70 0.58 R G45 0.39 Yes Yes
1997WU22 O C 2014-01-04.18670 1.000E-05 03:20:38.710 1.500E-01 1.225 F 0.000 0.055 +21° 05' 40.20" 1.000E-01 1.225 F 0.000 0.705 18.9 r 0.70 0.43 R G45 0.58 Yes Yes
1997WU22 O C 2014-01-04.19974 1.000E-05 03:20:38.200 1.500E-01 1.225 F 0.000 -0.329 +21° 05' 31.30" 1.000E-01 1.225 F 0.000 0.121 18.7 r 0.70 0.23 R G45 0.29 Yes Yes
ESA O C 2014-01-04.20493 1.000E-05 04:16:33.960 1.500E-01 1.118 F 0.000 -0.644 +15° 04' 10.00" 1.000E-01 1.118 F 0.000 0.285 18.0 r 0.70 0.18 R G45 0.63 Yes Yes
ESA O C 2014-01-04.21773 1.000E-05 04:16:34.130 1.500E-01 1.118 F 0.000 -0.441 +15° 04' 03.20" 1.000E-01 1.118 F 0.000 -0.118 18.1 r 0.70 0.28 R G45 0.41 Yes Yes
1997WU22 O C 2014-01-04.22559 1.000E-05 03:20:37.260 1.500E-01 1.225 F 0.000 -0.159 +21° 05' 14.70" 1.000E-01 1.225 F 0.000 0.038 18.6 r 0.70 0.13 R G45 0.13 Yes Yes
ESA O C 2014-01-04.22936 1.000E-05 04:16:34.330 1.500E-01 1.118 F 0.000 0.389 +15° 03' 57.80" 1.000E-01 1.118 F 0.000 0.302 18.0 r 0.70 0.18 R G45 0.44 Yes Yes
2001AF2 O C 2014-01-04.24984 1.000E-05 07:14:25.470 1.500E-01 1.500 F 0.000 -0.268 +11° 08' 00.40" 1.000E-01 1.500 F 0.000 0.486 18.7 r 0.70 0.49 R G45 0.37 Yes Yes
2001AF2 O C 2014-01-04.26312 1.000E-05 07:14:21.470 1.500E-01 1.500 F 0.000 0.373 +11° 08' 34.70" 1.000E-01 1.500 F 0.000 -0.311 19.3 r 0.70 1.09 R G45 0.32 Yes Yes
2001AF2 O C 2014-01-04.27616 1.000E-05 07:14:17.480 1.500E-01 1.500 F 0.000 0.112 +11° 09' 09.30" 1.000E-01 1.500 F 0.000 -0.139 19.2 r 0.70 0.99 R G45 0.12 Yes Yes
2001AF2 O C 2014-01-04.28960 1.000E-05 07:14:13.390 1.500E-01 1.500 F 0.000 0.189 +11° 09' 45.10" 1.000E-01 1.500 F 0.000 0.215 18.6 r 0.70 0.39 R G45 0.19 Yes Yes
Anteros O C 2014-01-04.32047 1.000E-05 09:06:02.550 1.500E-01 1.871 F 0.000 0.534 -01° 55' 54.90" 1.000E-01 1.871 F 0.000 0.631 16.4 r 0.70 0.31 R G45 0.44 Yes Yes
Anteros O C 2014-01-04.32074 1.000E-05 09:06:02.520 1.500E-01 1.871 F 0.000 0.227 -01° 55' 55.90" 1.000E-01 1.871 F 0.000 -0.051 16.2 r 0.70 0.11 R G45 0.12 Yes Yes
2001AF2 O C 2014-01-04.32478 1.000E-05 07:14:02.660 1.500E-01 1.500 F 0.000 0.025 +11° 11' 17.60" 1.000E-01 1.500 F 0.000 0.112 18.4 r 0.70 0.19 R G45 0.08 Yes Yes
Anteros O C 2014-01-04.33391 1.000E-05 09:06:02.050 1.500E-01 1.871 F 0.000 0.152 -01° 56' 11.30" 1.000E-01 1.871 F 0.000 0.100 16.3 r 0.70 0.21 R G45 0.10 Yes Yes
2014AR46 O C 2014-01-04.33603 1.000E-05 09:10:52.980 1.500E-01 1.118 F 0.000 0.583 +07° 36' 51.40" 1.000E-01 1.118 F 0.000 0.639 20.4 r 0.70 0.13 R G45 0.78 Yes Yes
2001AF2 O C 2014-01-04.33789 1.000E-05 07:13:58.690 1.500E-01 1.500 F 0.000 0.349 +11° 11' 51.90" 1.000E-01 1.500 F 0.000 -0.030 18.3 r 0.70 0.09 R G45 0.23 Yes Yes
Anteros O C 2014-01-04.34712 1.000E-05 09:06:01.590 1.500E-01 1.871 F 0.000 0.288 -01° 56' 27.00" 1.000E-01 1.871 F 0.000 -0.005 16.4 r 0.70 0.31 R G45 0.15 Yes Yes
Anteros O C 2014-01-04.34810 1.000E-05 09:06:01.540 1.500E-01 1.871 F 0.000 0.062 -01° 56' 28.10" 1.000E-01 1.871 F 0.000 0.052 16.3 r 0.70 0.21 R G45 0.04 Yes Yes
2001AF2 O C 2014-01-04.35069 1.000E-05 07:13:54.770 1.500E-01 1.500 F 0.000 -0.018 +11° 12' 25.50" 1.000E-01 1.500 F 0.000 -0.022 18.4 r 0.70 0.19 R G45 0.02 Yes Yes
Anteros O C 2014-01-04.36103 1.000E-05 09:06:01.090 1.500E-01 1.871 F 0.000 0.231 -01° 56' 43.30" 1.000E-01 1.871 F 0.000 0.113 16.5 r 0.70 0.41 R G45 0.14 Yes Yes
Anteros O C 2014-01-04.36177 1.000E-05 09:06:01.040 1.500E-01 1.871 F 0.000 -0.122 -01° 56' 44.40" 1.000E-01 1.871 F 0.000 -0.114 16.4 r 0.70 0.31 R G45 0.09 Yes Yes
2001AF2 O C 2014-01-04.36424 1.000E-05 07:13:50.670 1.500E-01 1.500 F 0.000 0.275 +11° 13' 00.90" 1.000E-01 1.500 F 0.000 -0.146 18.2 r 0.70 -0.01 R G45 0.21 Yes Yes
Anteros O C 2014-01-04.37489 1.000E-05 09:06:00.600 1.500E-01 1.871 F 0.000 0.323 -01° 56' 59.50" 1.000E-01 1.871 F 0.000 0.268 16.3 r 0.70 0.21 R G45 0.22 Yes Yes
2014AR46 O C 2014-01-04.37563 1.000E-05 09:10:50.080 1.500E-01 1.118 F 0.000 -0.362 +07° 35' 48.40" 1.000E-01 1.118 F 0.000 -0.134 20.5 r 0.70 0.23 R G45 0.35 Yes Yes
Anteros O C 2014-01-04.38826 1.000E-05 09:06:00.090 1.500E-01 1.871 F 0.000 -0.131 -01° 57' 15.50" 1.000E-01 1.871 F 0.000 0.042 16.3 r 0.70 0.21 R G45 0.07 Yes Yes
2014AR46 O C 2014-01-04.38873 1.000E-05 09:10:49.130 1.500E-01 1.118 F 0.000 -0.495 +07° 35' 28.50" 1.000E-01 1.118 F 0.000 0.576 20.5 r 0.70 0.23 R G45 0.68 Yes Yes
2001AF2 O C 2014-01-04.39113 1.000E-05 07:13:42.510 1.500E-01 1.500 F 0.000 0.307 +11° 14' 11.40" 1.000E-01 1.500 F 0.000 -0.032 18.2 r 0.70 -0.01 R G45 0.21 Yes Yes
2014AR46 O C 2014-01-04.41512 1.000E-05 09:10:47.260 1.500E-01 1.118 F 0.000 -0.087 +07° 34' 47.30" 1.000E-01 1.118 F 0.000 0.932 19.9 r 0.70 -0.36 R G45 0.84 Yes Yes
Anteros O C 2014-01-04.41539 1.000E-05 09:05:59.140 1.500E-01 1.871 F 0.000 0.239 -01° 57' 47.40" 1.000E-01 1.871 F 0.000 0.139 16.4 r 0.70 0.31 R G45 0.15 Yes Yes
2014AR46 O C 2014-01-04.42735 1.000E-05 09:10:46.450 1.500E-01 1.118 F 0.000 0.945 +07° 34' 27.50" 1.000E-01 1.118 F 0.000 0.407 19.7 r 0.70 -0.56 R G45 0.92 Yes Yes
Anteros O C 2014-01-04.42782 1.000E-05 09:05:58.700 1.500E-01 1.871 F 0.000 0.330 -01° 58' 01.90" 1.000E-01 1.871 F 0.000 0.295 16.3 r 0.70 0.21 R G45 0.24 Yes Yes
Anteros O C 2014-01-04.44103 1.000E-05 09:05:58.200 1.500E-01 1.871 F 0.000 -0.072 -01° 58' 17.70" 1.000E-01 1.871 F 0.000 0.067 16.3 r 0.70 0.21 R G45 0.05 Yes Yes
Anteros O C 2014-01-04.45363 1.000E-05 09:05:57.780 1.500E-01 1.871 F 0.000 0.377 -01° 58' 32.60" 1.000E-01 1.871 F 0.000 0.016 16.5 r 0.70 0.42 R G45 0.20 Yes Yes
Anteros O C 2014-01-04.46657 1.000E-05 09:05:57.300 1.500E-01 1.871 F 0.000 0.082 -01° 58' 47.80" 1.000E-01 1.871 F 0.000 0.064 16.4 r 0.70 0.32 R G45 0.06 Yes Yes
Ganymed O C 2014-01-04.48416 1.000E-05 12:10:16.070 1.500E-01 1.323 F 0.000 0.234 -21° 13' 22.60" 1.000E-01 1.323 F 0.000 -0.170 R G45 0.22 Yes No
Ganymed O C 2014-01-04.48517 1.000E-05 12:10:16.070 1.500E-01 1.323 F 0.000 0.099 -21° 13' 22.50" 1.000E-01 1.323 F 0.000 0.178 15.8 r 0.70 -0.05 R G45 0.15 Yes Yes
Florence O C 2014-01-04.48841 1.000E-05 12:38:48.150 1.500E-01 1.225 F 0.000 -0.013 -10° 35' 22.00" 1.000E-01 1.225 F 0.000 0.230 18.5 r 0.70 -0.12 R G45 0.19 Yes Yes
Ganymed O C 2014-01-04.49592 1.000E-05 12:10:16.200 1.500E-01 1.323 F 0.000 0.478 -21° 13' 25.00" 1.000E-01 1.323 F 0.000 0.317 16.0 r 0.70 0.15 R G45 0.43 Yes Yes
Florence O C 2014-01-04.50017 1.000E-05 12:38:48.450 1.500E-01 1.225 F 0.000 0.151 -10° 35' 30.20" 1.000E-01 1.225 F 0.000 -0.685 19.0 r 0.70 0.38 R G45 0.57 Yes Yes
2003BQ46 O C 2014-01-04.50462 1.000E-05 11:32:38.780 1.500E-01 1.000 F 0.000 0.075 -03° 45' 37.80" 1.000E-01 1.000 F 0.000 0.594 20.0 r 0.70 0.21 R G45 0.60 Yes Yes
Ganymed O C 2014-01-04.50819 1.000E-05 12:10:16.310 1.500E-01 1.323 F 0.000 0.378 -21° 13' 27.10" 1.000E-01 1.323 F 0.000 1.225 R G45 0.97 Yes No
Florence O C 2014-01-04.51142 1.000E-05 12:38:48.720 1.500E-01 1.225 F 0.000 0.064 -10° 35' 37.00" 1.000E-01 1.225 F 0.000 -0.519 19.1 r 0.70 0.48 R G45 0.43 Yes Yes
2003BQ46 O C 2014-01-04.51560 1.000E-05 11:32:40.110 1.500E-01 1.000 F 0.000 -0.093 -03° 45' 44.40" 1.000E-01 1.000 F 0.000 0.329 19.9 r 0.70 0.11 R G45 0.34 Yes Yes
Ganymed O C 2014-01-04.51968 1.000E-05 12:10:16.430 1.500E-01 1.323 F 0.000 0.523 -21° 13' 31.00" 1.000E-01 1.323 F 0.000 0.137 16.0 r 0.70 0.15 R G45 0.41 Yes Yes
Florence O C 2014-01-04.52301 1.000E-05 12:38:49.020 1.500E-01 1.225 F 0.000 0.301 -10° 35' 43.80" 1.000E-01 1.225 F 0.000 -0.146 18.6 r 0.70 -0.02 R G45 0.27 Yes Yes
2003BQ46 O C 2014-01-04.52732 1.000E-05 11:32:41.520 1.500E-01 1.000 F 0.000 -0.424 -03° 45' 51.10" 1.000E-01 1.000 F 0.000 0.387 20.0 r 0.70 0.21 R G45 0.57 Yes Yes
Ganymed O C 2014-01-04.53218 1.000E-05 12:10:16.550 1.500E-01 1.323 F 0.000 0.536 -21° 13' 33.80" 1.000E-01 1.323 F 0.000 0.392 16.0 r 0.70 0.15 R G45 0.50 Yes Yes
Florence O C 2014-01-04.53386 1.000E-05 12:38:49.310 1.500E-01 1.225 F 0.000 0.661 -10° 35' 49.70" 1.000E-01 1.225 F 0.000 0.666 18.9 r 0.70 0.28 R G45 0.77 Yes Yes
2003BQ46 O C 2014-01-04.53912 1.000E-05 11:32:42.970 1.500E-01 1.000 F 0.000 -0.314 -03° 45' 57.60" 1.000E-01 1.000 F 0.000 0.687 20.3 r 0.70 0.51 R G45 0.76 Yes Yes
Ganymed O C 2014-01-04.54420 1.000E-05 12:10:16.640 1.500E-01 1.323 F 0.000 0.193 -21° 13' 37.20" 1.000E-01 1.323 F 0.000 -0.075 15.9 r 0.70 0.05 R G45 0.16 Yes Yes
Florence O C 2014-01-04.54650 1.000E-05 12:38:49.580 1.500E-01 1.225 F 0.000 0.083 -10° 35' 58.40" 1.000E-01 1.225 F 0.000 -0.219 18.6 r 0.70 -0.02 R G45 0.19 Yes Yes
1998XM4 O C 2014-01-05.06532 1.000E-05 01:20:21.120 1.500E-01 1.414 F 0.000 -0.054 +08° 27' 26.40" 1.000E-01 1.414 F 0.000 0.090 19.0 r 0.70 0.60 R G45 0.07 Yes Yes
1994AH2 O C 2014-01-05.07314 1.000E-05 02:34:44.730 1.500E-01 1.000 F 0.000 0.406 +02° 01' 39.90" 1.000E-01 1.000 F 0.000 0.372 19.9 r 0.70 0.42 R G45 0.55 Yes Yes
1998XM4 O C 2014-01-05.07695 1.000E-05 01:20:21.460 1.500E-01 1.414 F 0.000 -0.248 +08° 27' 09.00" 1.000E-01 1.414 F 0.000 0.418 19.2 r 0.70 0.80 R G45 0.34 Yes Yes
1998XM4 O C 2014-01-05.09039 1.000E-05 01:20:21.870 1.500E-01 1.414 F 0.000 -0.228 +08° 26' 48.00" 1.000E-01 1.414 F 0.000 -0.096 18.6 r 0.70 0.20 R G45 0.17 Yes Yes
1994AH2 O C 2014-01-05.09871 1.000E-05 02:34:44.080 1.500E-01 1.000 F 0.000 0.287 +02° 01' 43.70" 1.000E-01 1.000 F 0.000 0.226 19.7 r 0.70 0.22 R G45 0.37 Yes Yes
1998XM4 O C 2014-01-05.10269 1.000E-05 01:20:22.240 1.500E-01 1.414 F 0.000 -0.298 +08° 26' 29.50" 1.000E-01 1.414 F 0.000 0.152 18.8 r 0.70 0.40 R G45 0.24 Yes Yes
1998XM4 O C 2014-01-05.10296 1.000E-05 01:20:22.260 1.500E-01 1.414 F 0.000 -0.123 +08° 26' 28.80" 1.000E-01 1.414 F 0.000 -0.136 19.1 r 0.70 0.70 R G45 0.13 Yes Yes
1994AH2 O C 2014-01-05.11091 1.000E-05 02:34:43.740 1.500E-01 1.000 F 0.000 -0.220 +02° 01' 45.40" 1.000E-01 1.000 F 0.000 0.042 19.8 r 0.70 0.32 R G45 0.22 Yes Yes
1998XM4 O C 2014-01-05.11583 1.000E-05 01:20:22.640 1.500E-01 1.414 F 0.000 -0.316 +08° 26' 09.70" 1.000E-01 1.414 F 0.000 0.380 18.8 r 0.70 0.40 R G45 0.35 Yes Yes
1994AH2 O C 2014-01-05.12368 1.000E-05 02:34:43.440 1.500E-01 1.000 F 0.000 0.083 +02° 01' 47.30" 1.000E-01 1.000 F 0.000 -0.031 19.9 r 0.70 0.42 R G45 0.09 Yes Yes
1998XM4 O C 2014-01-05.12860 1.000E-05 01:20:23.010 1.500E-01 1.414 F 0.000 -0.629 +08° 25' 50.30" 1.000E-01 1.414 F 0.000 0.442 18.8 r 0.70 0.40 R G45 0.54 Yes Yes
1998XM4 O C 2014-01-05.14167 1.000E-05 01:20:23.430 1.500E-01 1.414 F 0.000 -0.357 +08° 25' 29.50" 1.000E-01 1.414 F 0.000 -0.440 18.9 r 0.70 0.50 R G45 0.40 Yes Yes
1997WU22 O C 2014-01-05.17634 1.000E-05 03:20:06.020 1.500E-01 1.118 F 0.000 -0.138 +20° 55' 20.10" 1.000E-01 1.118 F 0.000 0.548 19.0 r 0.70 0.51 R G45 0.51 Yes Yes
1997WU22 O C 2014-01-05.18971 1.000E-05 03:20:05.550 1.500E-01 1.118 F 0.000 -0.332 +20° 55' 11.60" 1.000E-01 1.118 F 0.000 0.364 18.9 r 0.70 0.41 R G45 0.44 Yes Yes
1997WU22 O C 2014-01-05.20259 1.000E-05 03:20:05.090 1.500E-01 1.118 F 0.000 -0.639 +20° 55' 03.20" 1.000E-01 1.118 F 0.000 -0.014 19.1 r 0.70 0.61 R G45 0.57 Yes Yes
1997WU22 O C 2014-01-05.21556 1.000E-05 03:20:04.670 1.500E-01 1.118 F 0.000 -0.363 +20° 54' 55.20" 1.000E-01 1.118 F 0.000 0.075 19.1 r 0.70 0.61 R G45 0.33 Yes Yes
1997WU22 O C 2014-01-05.22853 1.000E-05 03:20:04.250 1.500E-01 1.118 F 0.000 -0.111 +20° 54' 47.20" 1.000E-01 1.118 F 0.000 0.174 19.2 r 0.70 0.71 R G45 0.18 Yes Yes
Ganymed O C 2014-01-05.48909 1.000E-05 12:10:26.060 1.500E-01 1.118 F 0.000 0.347 -21° 17' 25.90" 1.000E-01 1.118 F 0.000 0.110 16.1 r 0.70 0.26 R G45 0.33 Yes Yes
Ganymed O C 2014-01-05.50078 1.000E-05 12:10:26.150 1.500E-01 1.118 F 0.000 0.198 -21° 17' 29.00" 1.000E-01 1.118 F 0.000 -0.182 16.0 r 0.70 0.16 R G45 0.24 Yes Yes
Ganymed O C 2014-01-05.51247 1.000E-05 12:10:26.260 1.500E-01 1.118 F 0.000 0.330 -21° 17' 31.80" 1.000E-01 1.118 F 0.000 -0.177 16.1 r 0.70 0.26 R G45 0.34 Yes Yes
Ganymed O C 2014-01-05.52443 1.000E-05 12:10:26.360 1.500E-01 1.118 F 0.000 0.292 -21° 17' 34.60" 1.000E-01 1.118 F 0.000 -0.113 16.1 r 0.70 0.26 R G45 0.28 Yes Yes
Ganymed O C 2014-01-05.52450 1.000E-05 12:10:26.360 1.500E-01 1.118 F 0.000 0.284 -21° 17' 34.60" 1.000E-01 1.118 F 0.000 -0.096 16.0 r 0.70 0.16 R G45 0.27 Yes Yes
1997WU22 O C 2014-01-06.06813 1.000E-05 03:19:39.310 1.500E-01 1.225 F 0.000 0.352 +20° 46' 14.20" 1.000E-01 1.225 F 0.000 0.616 R G45 0.58 Yes No
1986DA O C 2014-01-06.07022 1.000E-05 03:56:10.080 1.500E-01 1.118 F 0.000 0.118 +21° 51' 48.70" 1.000E-01 1.118 F 0.000 1.372 19.8 r 0.70 0.31 R G45 1.23 Yes Yes
Robwhiteley O C 2014-01-06.07467 1.000E-05 03:11:12.740 1.500E-01 1.000 F 0.000 0.372 +41° 07' 35.80" 1.000E-01 1.000 F 0.000 0.502 18.1 r 0.70 -0.20 R G45 0.62 Yes Yes
1997WU22 O C 2014-01-06.08003 1.000E-05 03:19:38.900 1.500E-01 1.225 F 0.000 -0.164 +20° 46' 06.30" 1.000E-01 1.225 F 0.000 -0.147 18.7 r 0.70 0.19 R G45 0.18 Yes Yes
1997WU22 O C 2014-01-06.09304 1.000E-05 03:19:38.490 1.500E-01 1.225 F 0.000 -0.186 +20° 45' 58.90" 1.000E-01 1.225 F 0.000 0.265 18.9 r 0.70 0.39 R G45 0.26 Yes Yes
1986DA O C 2014-01-06.09448 1.000E-05 03:56:08.850 1.500E-01 1.118 F 0.000 -0.437 +21° 51' 45.90" 1.000E-01 1.118 F 0.000 0.207 20.0 r 0.70 0.51 R G45 0.43 Yes Yes
1997WU22 O C 2014-01-06.10678 1.000E-05 03:19:38.040 1.500E-01 1.225 F 0.000 -0.441 +20° 45' 50.80" 1.000E-01 1.225 F 0.000 0.428 R G45 0.50 Yes No
1986DA O C 2014-01-06.10816 1.000E-05 03:56:08.250 1.500E-01 1.118 F 0.000 0.567 +21° 51' 44.70" 1.000E-01 1.118 F 0.000 -0.057 19.6 r 0.70 0.11 R G45 0.51 Yes Yes
Robwhiteley O C 2014-01-06.11237 1.000E-05 03:11:11.650 1.500E-01 1.000 F 0.000 -0.063 +41° 06' 42.00" 1.000E-01 1.000 F 0.000 -0.041 18.5 r 0.70 0.20 R G45 0.08 Yes Yes
1997WU22 O C 2014-01-06.12059 1.000E-05 03:19:37.590 1.500E-01 1.225 F 0.000 -0.665 +20° 45' 42.60" 1.000E-01 1.225 F 0.000 0.545 18.9 r 0.70 0.39 R G45 0.70 Yes Yes
Robwhiteley O C 2014-01-06.12592 1.000E-05 03:11:11.270 1.500E-01 1.000 F 0.000 -0.086 +41° 06' 22.90" 1.000E-01 1.000 F 0.000 0.045 18.4 r 0.70 0.10 R G45 0.10 Yes Yes
1997WU22 O C 2014-01-06.13421 1.000E-05 03:19:37.160 1.500E-01 1.225 F 0.000 -0.693 +20° 45' 34.40" 1.000E-01 1.225 F 0.000 0.560 18.7 r 0.70 0.19 R G45 0.73 Yes Yes
1986DA O C 2014-01-06.13637 1.000E-05 03:56:06.840 1.500E-01 1.118 F 0.000 0.251 +21° 51' 43.10" 1.000E-01 1.118 F 0.000 0.308 20.0 r 0.70 0.51 R G45 0.36 Yes Yes
1986DA O C 2014-01-06.13643 1.000E-05 03:56:06.800 1.500E-01 1.118 F 0.000 -0.264 +21° 51' 43.30" 1.000E-01 1.118 F 0.000 0.513 19.8 r 0.70 0.31 R G45 0.52 Yes Yes
Robwhiteley O C 2014-01-06.14054 1.000E-05 03:11:10.960 1.500E-01 1.000 F 0.000 1.015 +41° 06' 02.70" 1.000E-01 1.000 F 0.000 0.574 18.4 r 0.70 0.10 R G45 1.17 Yes Yes
2004XM14 O C 2014-01-06.15408 1.000E-05 05:56:24.570 1.500E-01 1.225 F 0.000 0.023 +37° 43' 37.60" 1.000E-01 1.225 F 0.000 0.057 20.0 r 0.70 0.62 R G45 0.05 Yes Yes
2004XM14 O C 2014-01-06.18693 1.000E-05 05:56:17.600 1.500E-01 1.225 F 0.000 0.550 +37° 44' 02.10" 1.000E-01 1.225 F 0.000 0.155 19.8 r 0.70 0.42 R G45 0.47 Yes Yes
2004XM14 O C 2014-01-06.20044 1.000E-05 05:56:14.680 1.500E-01 1.225 F 0.000 0.165 +37° 44' 11.60" 1.000E-01 1.225 F 0.000 -0.317 19.8 r 0.70 0.42 R G45 0.29 Yes Yes
2004XM14 O C 2014-01-06.20065 1.000E-05 05:56:14.640 1.500E-01 1.225 F 0.000 0.223 +37° 44' 12.30" 1.000E-01 1.225 F 0.000 0.229 19.7 r 0.70 0.32 R G45 0.26 Yes Yes
2004XM14 O C 2014-01-06.22706 1.000E-05 05:56:08.970 1.500E-01 1.225 F 0.000 -0.045 +37° 44' 31.50" 1.000E-01 1.225 F 0.000 0.049 19.8 r 0.70 0.42 R G45 0.05 Yes Yes
2004XM14 O C 2014-01-06.24003 1.000E-05 05:56:06.200 1.500E-01 1.225 F 0.000 0.004 +37° 44' 41.30" 1.000E-01 1.225 F 0.000 0.387 19.6 r 0.70 0.22 R G45 0.32 Yes Yes
Eric O C 2014-01-06.42248 1.000E-05 12:59:15.650 1.500E-01 1.581 F 0.000 0.052 +00° 14' 05.00" 1.000E-01 1.581 F 0.000 -0.066 15.9 r 0.70 -0.16 R G45 0.05 Yes Yes
Eric O C 2014-01-06.43417 1.000E-05 12:59:16.080 1.500E-01 1.581 F 0.000 0.135 +00° 13' 59.20" 1.000E-01 1.581 F 0.000 0.326 16.0 r 0.70 -0.06 R G45 0.22 Yes Yes
Eric O C 2014-01-06.44765 1.000E-05 12:59:16.560 1.500E-01 1.581 F 0.000 0.018 +00° 13' 52.30" 1.000E-01 1.581 F 0.000 0.565 15.8 r 0.70 -0.26 R G45 0.36 Yes Yes
Eric O C 2014-01-06.46042 1.000E-05 12:59:17.030 1.500E-01 1.581 F 0.000 0.158 +00° 13' 45.10" 1.000E-01 1.581 F 0.000 0.127 15.7 r 0.70 -0.36 R G45 0.13 Yes Yes
Eric O C 2014-01-06.47397 1.000E-05 12:59:17.510 1.500E-01 1.581 F 0.000 0.047 +00° 13' 38.10" 1.000E-01 1.581 F 0.000 0.300 15.9 r 0.70 -0.16 R G45 0.19 Yes Yes
Eric O C 2014-01-06.47737 1.000E-05 12:59:17.610 1.500E-01 1.581 F 0.000 -0.284 +00° 13' 35.50" 1.000E-01 1.581 F 0.000 -0.500 15.9 r 0.70 -0.16 R G45 0.36 Yes Yes
Amun O C 2014-01-06.48148 1.000E-05 14:12:09.560 1.500E-01 1.118 F 0.000 0.025 -04° 11' 05.50" 1.000E-01 1.118 F 0.000 0.187 17.7 r 0.70 -0.15 R G45 0.17 Yes Yes
1973GM O C 2014-01-06.48593 1.000E-05 14:59:59.600 1.500E-01 1.000 F 0.000 0.329 -02° 43' 36.30" 1.000E-01 1.000 F 0.000 -0.028 17.9 r 0.70 -0.07 R G45 0.33 Yes Yes
Eric O C 2014-01-06.48963 1.000E-05 12:59:18.090 1.500E-01 1.581 F 0.000 0.321 +00° 13' 29.70" 1.000E-01 1.581 F 0.000 0.189 15.8 r 0.70 -0.26 R G45 0.24 Yes Yes
Amun O C 2014-01-06.49442 1.000E-05 14:12:11.040 1.500E-01 1.118 F 0.000 -0.267 -04° 11' 24.30" 1.000E-01 1.118 F 0.000 0.068 18.1 r 0.70 0.25 R G45 0.25 Yes Yes
Eric O C 2014-01-06.50271 1.000E-05 12:59:18.560 1.500E-01 1.581 F 0.000 0.350 +00° 13' 22.90" 1.000E-01 1.581 F 0.000 0.310 15.8 r 0.70 -0.26 R G45 0.30 Yes Yes
Amun O C 2014-01-06.50736 1.000E-05 14:12:12.540 1.500E-01 1.118 F 0.000 -0.232 -04° 11' 43.00" 1.000E-01 1.118 F 0.000 0.048 17.9 r 0.70 0.05 R G45 0.21 Yes Yes
1973GM O C 2014-01-06.51073 1.000E-05 15:00:02.610 1.500E-01 1.000 F 0.000 0.254 -02° 43' 46.50" 1.000E-01 1.000 F 0.000 0.132 18.3 r 0.70 0.34 R G45 0.29 Yes Yes
1973GM O C 2014-01-06.52468 1.000E-05 15:00:04.310 1.500E-01 1.000 F 0.000 0.337 -02° 43' 52.20" 1.000E-01 1.000 F 0.000 0.257 18.2 r 0.70 0.24 R G45 0.42 Yes Yes
Eric O C 2014-01-06.52815 1.000E-05 12:59:19.470 1.500E-01 1.581 F 0.000 0.378 +00° 13' 09.40" 1.000E-01 1.581 F 0.000 0.268 16.2 r 0.70 0.14 R G45 0.29 Yes Yes
Amun O C 2014-01-06.53344 1.000E-05 14:12:15.570 1.500E-01 1.118 F 0.000 0.010 -04° 12' 20.60" 1.000E-01 1.118 F 0.000 0.091 18.0 r 0.70 0.15 R G45 0.08 Yes Yes
1973GM O C 2014-01-06.53714 1.000E-05 15:00:05.820 1.500E-01 1.000 F 0.000 0.297 -02° 43' 57.80" 1.000E-01 1.000 F 0.000 -0.142 18.3 r 0.70 0.34 R G45 0.33 Yes Yes
Eric O C 2014-01-06.54011 1.000E-05 12:59:19.880 1.500E-01 1.581 F 0.000 0.135 +00° 13' 03.20" 1.000E-01 1.581 F 0.000 0.394 16.3 r 0.70 0.24 R G45 0.26 Yes Yes
Amun O C 2014-01-06.54574 1.000E-05 14:12:16.990 1.500E-01 1.118 F 0.000 0.016 -04° 12' 38.30" 1.000E-01 1.118 F 0.000 0.142 18.0 r 0.70 0.15 R G45 0.13 Yes Yes
2011CQ4 O C 2014-01-07.06727 1.000E-05 02:44:39.070 1.500E-01 1.118 F 0.000 -0.455 +21° 34' 20.90" 1.000E-01 1.118 F 0.000 0.298 18.2 r 0.70 -0.19 R G45 0.49 Yes Yes
1997WU22 O C 2014-01-07.06845 1.000E-05 03:19:11.680 1.500E-01 1.225 F 0.000 -0.487 +20° 36' 16.30" 1.000E-01 1.225 F 0.000 0.264 18.9 r 0.70 0.36 R G45 0.45 Yes Yes
2011CQ4 O C 2014-01-07.07889 1.000E-05 02:44:36.440 1.500E-01 1.118 F 0.000 -0.321 +21° 34' 49.90" 1.000E-01 1.118 F 0.000 0.181 18.3 r 0.70 -0.09 R G45 0.33 Yes Yes
1997WU22 O C 2014-01-07.08054 1.000E-05 03:19:11.350 1.500E-01 1.225 F 0.000 -0.286 +20° 36' 09.40" 1.000E-01 1.225 F 0.000 0.430 18.8 r 0.70 0.26 R G45 0.42 Yes Yes
2011CQ4 O C 2014-01-07.09213 1.000E-05 02:44:33.440 1.500E-01 1.118 F 0.000 -0.192 +21° 35' 23.00" 1.000E-01 1.118 F 0.000 0.147 18.4 r 0.70 0.01 R G45 0.22 Yes Yes
1997WU22 O C 2014-01-07.09362 1.000E-05 03:19:10.990 1.500E-01 1.225 F 0.000 -0.103 +20° 36' 01.50" 1.000E-01 1.225 F 0.000 0.186 18.7 r 0.70 0.16 R G45 0.17 Yes Yes
2011CQ4 O C 2014-01-07.10531 1.000E-05 02:44:30.420 1.500E-01 1.118 F 0.000 -0.518 +21° 35' 55.70" 1.000E-01 1.118 F 0.000 -0.092 18.3 r 0.70 -0.09 R G45 0.47 Yes Yes
1997WU22 O C 2014-01-07.10723 1.000E-05 03:19:10.580 1.500E-01 1.225 F 0.000 -0.407 +20° 35' 53.60" 1.000E-01 1.225 F 0.000 0.263 18.5 r 0.70 -0.04 R G45 0.40 Yes Yes
1997WU22 O C 2014-01-07.12192 1.000E-05 03:19:10.200 1.500E-01 1.225 F 0.000 0.145 +20° 35' 44.70" 1.000E-01 1.225 F 0.000 -0.014 18.7 r 0.70 0.16 R G45 0.12 Yes Yes
2011CQ4 O C 2014-01-07.13415 1.000E-05 02:44:23.880 1.500E-01 1.118 F 0.000 -0.284 +21° 37' 07.80" 1.000E-01 1.118 F 0.000 0.092 18.1 r 0.70 -0.29 R G45 0.27 Yes Yes
1997WU22 O C 2014-01-07.13594 1.000E-05 03:19:09.770 1.500E-01 1.225 F 0.000 -0.278 +20° 35' 37.00" 1.000E-01 1.225 F 0.000 0.529 18.8 r 0.70 0.26 R G45 0.49 Yes Yes
1998ML14 O C 2014-01-07.16041 1.000E-05 06:08:35.690 1.500E-01 1.118 F 0.000 0.005 +28° 16' 39.90" 1.000E-01 1.118 F 0.000 0.369 18.6 r 0.70 0.32 R G45 0.33 Yes Yes
2004XM14 O C 2014-01-07.16257 1.000E-05 05:52:53.510 1.500E-01 1.323 F 0.000 0.277 +37° 55' 33.00" 1.000E-01 1.323 F 0.000 -0.007 20.0 r 0.70 0.58 R G45 0.21 Yes Yes
2004XM14 O C 2014-01-07.17311 1.000E-05 05:52:51.230 1.500E-01 1.323 F 0.000 -0.290 +37° 55' 40.60" 1.000E-01 1.323 F 0.000 0.200 20.0 r 0.70 0.58 R G45 0.27 Yes Yes
1998ML14 O C 2014-01-07.18649 1.000E-05 06:08:33.680 1.500E-01 1.118 F 0.000 0.304 +28° 16' 33.60" 1.000E-01 1.118 F 0.000 0.021 18.6 r 0.70 0.32 R G45 0.27 Yes Yes
2004XM14 O C 2014-01-07.18848 1.000E-05 05:52:48.030 1.500E-01 1.323 F 0.000 0.379 +37° 55' 51.50" 1.000E-01 1.323 F 0.000 0.359 19.7 r 0.70 0.28 R G45 0.40 Yes Yes
1998ML14 O C 2014-01-07.19970 1.000E-05 06:08:32.620 1.500E-01 1.118 F 0.000 -0.065 +28° 16' 30.60" 1.000E-01 1.118 F 0.000 0.081 18.6 r 0.70 0.32 R G45 0.09 Yes Yes
2004XM14 O C 2014-01-07.20145 1.000E-05 05:52:45.260 1.500E-01 1.323 F 0.000 0.134 +37° 56' 00.10" 1.000E-01 1.323 F 0.000 -0.066 19.4 r 0.70 -0.02 R G45 0.11 Yes Yes
1998ML14 O C 2014-01-07.21287 1.000E-05 06:08:31.580 1.500E-01 1.118 F 0.000 -0.195 +28° 16' 27.10" 1.000E-01 1.118 F 0.000 -0.337 18.6 r 0.70 0.32 R G45 0.35 Yes Yes
2004XM14 O C 2014-01-07.21463 1.000E-05 05:52:42.440 1.500E-01 1.323 F 0.000 -0.166 +37° 56' 09.50" 1.000E-01 1.323 F 0.000 0.200 20.0 r 0.70 0.58 R G45 0.20 Yes Yes
1998ML14 O C 2014-01-07.22639 1.000E-05 06:08:30.530 1.500E-01 1.118 F 0.000 -0.086 +28° 16' 24.20" 1.000E-01 1.118 F 0.000 -0.040 18.4 r 0.70 0.11 R G45 0.09 Yes Yes
2004XM14 O C 2014-01-07.22777 1.000E-05 05:52:39.640 1.500E-01 1.323 F 0.000 -0.325 +37° 56' 18.80" 1.000E-01 1.323 F 0.000 0.431 20.1 r 0.70 0.68 R G45 0.41 Yes Yes
2004XM14 O C 2014-01-07.22838 1.000E-05 05:52:39.570 1.500E-01 1.323 F 0.000 0.377 +37° 56' 18.70" 1.000E-01 1.323 F 0.000 -0.089 19.5 r 0.70 0.08 R G45 0.29 Yes Yes
1934FJ O C 2014-01-07.23932 1.000E-05 08:25:15.510 1.500E-01 1.118 F 0.000 0.053 +22° 54' 07.10" 1.000E-01 1.118 F 0.000 0.250 19.2 r 0.70 0.60 R G45 0.23 Yes Yes
2008AJ33 O C 2014-01-07.24875 1.000E-05 07:01:51.020 1.500E-01 1.118 F 0.000 0.313 +27° 42' 12.30" 1.000E-01 1.118 F 0.000 0.400 R G45 0.46 Yes No
1934FJ O C 2014-01-07.25071 1.000E-05 08:25:14.670 1.500E-01 1.118 F 0.000 0.109 +22° 54' 08.10" 1.000E-01 1.118 F 0.000 -0.338 18.9 r 0.70 0.30 R G45 0.32 Yes Yes
1934FJ O C 2014-01-07.26216 1.000E-05 08:25:13.810 1.500E-01 1.118 F 0.000 -0.031 +22° 54' 10.10" 1.000E-01 1.118 F 0.000 0.075 19.1 r 0.70 0.50 R G45 0.07 Yes Yes
2008AJ33 O C 2014-01-07.27163 1.000E-05 07:01:50.520 1.500E-01 1.118 F 0.000 0.234 +27° 42' 44.70" 1.000E-01 1.118 F 0.000 0.073 19.3 r 0.70 0.23 R G45 0.22 Yes Yes
2008AJ33 O C 2014-01-07.28403 1.000E-05 07:01:50.290 1.500E-01 1.118 F 0.000 0.756 +27° 43' 02.40" 1.000E-01 1.118 F 0.000 0.122 R G45 0.69 Yes No
1934FJ O C 2014-01-07.28625 1.000E-05 08:25:12.030 1.500E-01 1.118 F 0.000 0.142 +22° 54' 12.70" 1.000E-01 1.118 F 0.000 -0.632 19.1 r 0.70 0.50 R G45 0.58 Yes Yes
2008AJ33 O C 2014-01-07.29723 1.000E-05 07:01:49.980 1.500E-01 1.118 F 0.000 0.450 +27° 43' 21.20" 1.000E-01 1.118 F 0.000 0.197 19.4 r 0.70 0.32 R G45 0.44 Yes Yes
1934FJ O C 2014-01-07.29956 1.000E-05 08:25:11.040 1.500E-01 1.118 F 0.000 0.175 +22° 54' 15.00" 1.000E-01 1.118 F 0.000 -0.139 19.2 r 0.70 0.60 R G45 0.20 Yes Yes
2008AJ33 O C 2014-01-07.31051 1.000E-05 07:01:49.740 1.500E-01 1.118 F 0.000 1.090 +27° 43' 40.00" 1.000E-01 1.118 F 0.000 0.228 19.4 r 0.70 0.32 R G45 1.00 Yes Yes
2003BQ46 O C 2014-01-07.40389 1.000E-05 11:38:43.990 1.500E-01 1.225 F 0.000 -0.053 -04° 12' 58.10" 1.000E-01 1.225 F 0.000 0.118 19.6 r 0.70 -0.10 R G45 0.11 Yes Yes
Eric O C 2014-01-07.40851 1.000E-05 12:59:52.040 1.500E-01 1.323 F 0.000 0.002 +00° 05' 26.90" 1.000E-01 1.323 F 0.000 0.120 16.0 r 0.70 -0.06 R G45 0.09 Yes Yes
Apollo O C 2014-01-07.40864 1.000E-05 12:45:27.480 1.500E-01 1.225 F 0.000 -0.150 +01° 48' 08.50" 1.000E-01 1.225 F 0.000 0.982 20.1 r 0.70 0.06 R G45 0.80 Yes Yes
2008CM116 O C 2014-01-07.41289 1.000E-05 11:38:07.190 1.500E-01 1.000 F 0.000 0.215 +26° 06' 09.20" 1.000E-01 1.000 F 0.000 0.900 R G45 0.92 Yes No
1997XF11 O C 2014-01-07.41529 1.000E-05 10:56:44.720 1.500E-01 1.118 F 0.000 -0.046 +00° 31' 28.40" 1.000E-01 1.118 F 0.000 0.246 20.2 r 0.70 0.01 R G45 0.22 Yes Yes
2003BQ46 O C 2014-01-07.41640 1.000E-05 11:38:45.530 1.500E-01 1.225 F 0.000 -0.040 -04° 13' 04.90" 1.000E-01 1.225 F 0.000 0.262 19.7 r 0.70 0.00 R G45 0.22 Yes Yes
Apollo O C 2014-01-07.42186 1.000E-05 12:45:28.170 1.500E-01 1.225 F 0.000 0.518 +01° 48' 04.80" 1.000E-01 1.225 F 0.000 -0.074 20.2 r 0.70 0.16 R G45 0.45 Yes Yes
2004XO14 O C 2014-01-07.42334 1.000E-05 12:20:19.850 1.500E-01 1.225 F 0.000 0.045 +13° 57' 59.20" 1.000E-01 1.225 F 0.000 0.122 20.1 r 0.70 -0.04 R G45 0.10 Yes Yes
2008CM116 O C 2014-01-07.42556 1.000E-05 11:38:06.400 1.500E-01 1.000 F 0.000 0.429 +26° 06' 17.10" 1.000E-01 1.000 F 0.000 1.093 20.2 r 0.70 0.10 R G45 1.17 Yes Yes
1997XF11 O C 2014-01-07.42769 1.000E-05 10:56:44.580 1.500E-01 1.118 F 0.000 0.670 +00° 31' 27.70" 1.000E-01 1.118 F 0.000 0.421 20.0 r 0.70 -0.19 R G45 0.71 Yes Yes
2003BQ46 O C 2014-01-07.42984 1.000E-05 11:38:47.180 1.500E-01 1.225 F 0.000 -0.070 -04° 13' 12.60" 1.000E-01 1.225 F 0.000 0.017 19.7 r 0.70 0.00 R G45 0.06 Yes Yes
Eric O C 2014-01-07.43571 1.000E-05 12:59:52.980 1.500E-01 1.323 F 0.000 0.007 +00° 05' 12.30" 1.000E-01 1.323 F 0.000 -0.301 15.8 r 0.70 -0.26 R G45 0.23 Yes Yes
2004XO14 O C 2014-01-07.43618 1.000E-05 12:20:20.160 1.500E-01 1.225 F 0.000 -0.429 +13° 58' 07.40" 1.000E-01 1.225 F 0.000 -0.629 20.4 r 0.70 0.26 R G45 0.63 Yes Yes
2004XO14 O C 2014-01-07.43672 1.000E-05 12:20:20.160 1.500E-01 1.225 F 0.000 -0.638 +13° 58' 08.30" 1.000E-01 1.225 F 0.000 -0.106 20.5 r 0.70 0.36 R G45 0.54 Yes Yes
1997XF11 O C 2014-01-07.44019 1.000E-05 10:56:44.380 1.500E-01 1.118 F 0.000 0.519 +00° 31' 26.50" 1.000E-01 1.118 F 0.000 0.101 20.5 r 0.70 0.31 R G45 0.47 Yes Yes
2003BQ46 O C 2014-01-07.44181 1.000E-05 11:38:48.620 1.500E-01 1.225 F 0.000 -0.522 -04° 13' 19.20" 1.000E-01 1.225 F 0.000 0.051 19.2 r 0.70 -0.49 R G45 0.43 Yes Yes
Apollo O C 2014-01-07.44844 1.000E-05 12:45:29.480 1.500E-01 1.225 F 0.000 0.765 +01° 47' 59.90" 1.000E-01 1.225 F 0.000 0.342 19.9 r 0.70 -0.14 R G45 0.70 Yes Yes
2004XO14 O C 2014-01-07.44942 1.000E-05 12:20:20.510 1.500E-01 1.225 F 0.000 -0.459 +13° 58' 17.60" 1.000E-01 1.225 F 0.000 0.344 20.0 r 0.70 -0.14 R G45 0.47 Yes Yes
2008CM116 O C 2014-01-07.45050 1.000E-05 11:38:04.800 1.500E-01 1.000 F 0.000 0.308 +26° 06' 32.50" 1.000E-01 1.000 F 0.000 1.366 20.3 r 0.70 0.20 R G45 1.40 Yes Yes
1997XF11 O C 2014-01-07.45336 1.000E-05 10:56:44.170 1.500E-01 1.118 F 0.000 0.379 +00° 31' 26.10" 1.000E-01 1.118 F 0.000 0.627 20.4 r 0.70 0.21 R G45 0.65 Yes Yes
2003BQ46 O C 2014-01-07.45538 1.000E-05 11:38:50.350 1.500E-01 1.225 F 0.000 0.440 -04° 13' 26.90" 1.000E-01 1.225 F 0.000 -0.134 19.5 r 0.70 -0.19 R G45 0.38 Yes Yes
Apollo O C 2014-01-07.46037 1.000E-05 12:45:30.090 1.500E-01 1.225 F 0.000 1.229 +01° 47' 57.30" 1.000E-01 1.225 F 0.000 0.126 20.2 r 0.70 0.16 R G45 1.03 Yes Yes
Apollo O C 2014-01-07.46138 1.000E-05 12:45:30.070 1.500E-01 1.225 F 0.000 0.195 +01° 47' 57.40" 1.000E-01 1.225 F 0.000 0.428 20.1 r 0.70 0.06 R G45 0.39 Yes Yes
Eric O C 2014-01-07.46151 1.000E-05 12:59:53.880 1.500E-01 1.323 F 0.000 0.234 +00° 04' 59.50" 1.000E-01 1.323 F 0.000 0.343 16.1 r 0.70 0.04 R G45 0.31 Yes Yes
2004XO14 O C 2014-01-07.46205 1.000E-05 12:20:20.900 1.500E-01 1.225 F 0.000 0.344 +13° 58' 26.40" 1.000E-01 1.225 F 0.000 0.345 20.2 r 0.70 0.06 R G45 0.39 Yes Yes
1997XF11 O C 2014-01-07.46617 1.000E-05 10:56:43.980 1.500E-01 1.118 F 0.000 0.463 +00° 31' 24.90" 1.000E-01 1.118 F 0.000 0.325 19.9 r 0.70 -0.29 R G45 0.51 Yes Yes
2003BQ46 O C 2014-01-07.47004 1.000E-05 11:38:52.160 1.500E-01 1.225 F 0.000 0.608 -04° 13' 34.80" 1.000E-01 1.225 F 0.000 0.078 19.1 r 0.70 -0.59 R G45 0.50 Yes Yes
2008CM116 O C 2014-01-07.47395 1.000E-05 11:38:03.270 1.500E-01 1.000 F 0.000 -0.094 +26° 06' 46.10" 1.000E-01 1.000 F 0.000 0.801 20.5 r 0.70 0.40 R G45 0.80 Yes Yes
Apollo O C 2014-01-07.47439 1.000E-05 12:45:30.690 1.500E-01 1.225 F 0.000 0.038 +01° 47' 55.20" 1.000E-01 1.225 F 0.000 0.828 20.6 r 0.70 0.56 R G45 0.67 Yes Yes
2004XO14 O C 2014-01-07.47506 1.000E-05 12:20:21.250 1.500E-01 1.225 F 0.000 0.431 +13° 58' 34.60" 1.000E-01 1.225 F 0.000 -0.514 20.1 r 0.70 -0.04 R G45 0.54 Yes Yes
Eric O C 2014-01-07.47971 1.000E-05 12:59:54.490 1.500E-01 1.323 F 0.000 0.067 +00° 04' 49.70" 1.000E-01 1.323 F 0.000 0.023 16.0 r 0.70 -0.06 R G45 0.05 Yes Yes
1970RA O C 2014-01-07.48019 1.000E-05 13:22:36.380 1.500E-01 1.225 F 0.000 0.198 -08° 12' 24.00" 1.000E-01 1.225 F 0.000 0.130 R G45 0.19 Yes No
Amun O C 2014-01-07.48456 1.000E-05 14:14:08.050 1.500E-01 1.118 F 0.000 0.334 -04° 35' 15.00" 1.000E-01 1.118 F 0.000 -0.053 18.0 r 0.70 0.16 R G45 0.30 Yes Yes
Eger O C 2014-01-07.48713 1.000E-05 14:15:41.220 1.500E-01 1.118 F 0.000 -0.031 +03° 35' 46.90" 1.000E-01 1.118 F 0.000 -0.526 19.6 r 0.70 0.77 R G45 0.47 Yes Yes
Eric O C 2014-01-07.49232 1.000E-05 12:59:54.910 1.500E-01 1.323 F 0.000 -0.069 +00° 04' 43.00" 1.000E-01 1.323 F 0.000 -0.110 15.9 r 0.70 -0.16 R G45 0.10 Yes Yes
1970RA O C 2014-01-07.49258 1.000E-05 13:22:36.910 1.500E-01 1.225 F 0.000 0.129 -08° 12' 27.10" 1.000E-01 1.225 F 0.000 -0.474 19.4 r 0.70 0.36 R G45 0.40 Yes Yes
1970RA O C 2014-01-07.49265 1.000E-05 13:22:36.910 1.500E-01 1.225 F 0.000 0.085 -08° 12' 26.40" 1.000E-01 1.225 F 0.000 0.241 19.4 r 0.70 0.36 R G45 0.21 Yes Yes
Amun O C 2014-01-07.49764 1.000E-05 14:14:09.550 1.500E-01 1.118 F 0.000 0.141 -04° 35' 33.80" 1.000E-01 1.118 F 0.000 0.114 18.1 r 0.70 0.26 R G45 0.16 Yes Yes

[1-200] [201-400] [401-600] [601-800] [801-1000] [1001-1200] [1201-1400] [1401-1600] [1601-1800] [1801-2000] [2001-2200] [2201-2400] [2401-2600] [2601-2800] [2801-3000] [3001-3200] [3201-3400] [3401-3600] [3601-3800] [3801-4000] [4001-4200] [4201-4400] [4401-4600] [4601-4800] [4801-5000] [5001-5200] [5201-5400] [5401-5600] [5601-5800] [5801-6000] [6001-6200] [6201-6400] [6401-6600] [6601-6800] [6801-7000] [7001-7200] [7201-7400] [7401-7600] [7601-7800] [7801-8000] [8001-8200] [8201-8400] [8401-8600] [8601-8800] [8801-9000] [9001-9200] [9201-9400] [9401-9600] [9601-9800] [9801-10000] [10001-10200] [10201-10400] [10401-10600] [10601-10800] [10801-11000] [11001-11200] [11201-11400] [11401-11600] [11601-11800] [11801-12000] [12001-12200] [12201-12400] [12401-12600] [12601-12800] [12801-13000] [13001-13200] [13201-13400] [13401-13600] [13601-13800] [13801-14000] [14001-14200] [14201-14400] [14401-14600] [14601-14800] [14801-15000] [15001-15200] [15201-15400] [15401-15600] [15601-15800] [15801-16000] [16001-16200] [16201-16400] [16401-16600] [16601-16800] [16801-17000] [17001-17200] [17201-17400] [17401-17600] [17601-17800] [17801-18000] [18001-18200] [18201-18400] [18401-18600] [18601-18800] [18801-19000] [19001-19200] [19201-19400] [19401-19600] [19601-19800] [19801-20000] [20001-20200] [20201-20400] [20401-20600] [20601-20800] [20801-21000] [21001-21200] [21201-21400] [21401-21600] [21601-21800] [21801-22000] [22001-22200] [22201-22400] [22401-22600] [22601-22800] [22801-23000] [23001-23200] [23201-23400] [23401-23600] [23601-23800] [23801-24000] [24001-24200] [24201-24400] [24401-24600] [24601-24800] [24801-25000] [25001-25200] [25201-25400] [25401-25600] [25601-25800] [25801-26000] [26001-26200] [26201-26400] [26401-26600] [26601-26800] [26801-27000] [27001-27200] [27201-27400] [27401-27600] [27601-27800] [27801-28000] [28001-28200] [28201-28400] [28401-28600] [28601-28800] [28801-29000] [29001-29200] [29201-29400] [29401-29600] [29601-29800] [29801-30000] [30001-30200] [30201-30400] [30401-30600] [30601-30800] [30801-31000] [31001-31200] [31201-31400] [31401-31600] [31601-31764]





This Web Site has been visited 596505 times since

and this Page has been visited 12687 times since 2012/01/23